createdAt,value
2023-04-28T00:00:37.284Z,4.09
2023-04-28T00:03:03.874Z,4.10
2023-04-28T00:05:30.500Z,3.99
2023-04-28T00:07:57.002Z,4.27
2023-04-28T00:10:23.499Z,3.99
2023-04-28T00:12:49.970Z,3.94
2023-04-28T00:15:16.483Z,4.03
2023-04-28T00:17:43.194Z,4.09
2023-04-28T00:20:09.676Z,3.92
2023-04-28T00:22:36.148Z,3.99
2023-04-28T00:25:02.721Z,3.91
2023-04-28T00:27:29.224Z,4.07
2023-04-28T00:29:55.909Z,4.18
2023-04-28T00:32:22.440Z,3.90
2023-04-28T00:34:48.939Z,3.98
2023-04-28T00:37:15.359Z,4.06
2023-04-28T00:39:41.917Z,3.87
2023-04-28T00:42:08.343Z,3.95
2023-04-28T00:44:34.911Z,4.03
2023-04-28T00:47:01.457Z,4.04
2023-04-28T00:49:27.998Z,3.96
2023-04-28T00:51:54.559Z,3.79
2023-04-28T00:54:21.008Z,3.65
2023-04-28T00:56:47.621Z,3.71
2023-04-28T00:59:14.171Z,3.61
2023-04-28T01:01:40.717Z,3.71
2023-04-28T01:04:07.781Z,3.84
2023-04-28T01:06:34.698Z,3.95
2023-04-28T01:09:01.222Z,3.74
2023-04-28T01:11:27.724Z,3.74
2023-04-28T01:13:54.220Z,3.93
2023-04-28T01:16:20.767Z,3.74
2023-04-28T01:18:49.096Z,3.62
2023-04-28T01:21:15.614Z,3.62
2023-04-28T01:23:42.085Z,3.71
2023-04-28T01:26:08.616Z,3.74
2023-04-28T01:28:35.157Z,3.80
2023-04-28T01:31:01.656Z,3.44
2023-04-28T01:33:28.131Z,3.62
2023-04-28T01:35:54.679Z,3.42
2023-04-28T01:38:21.206Z,3.70
2023-04-28T01:40:47.798Z,3.52
2023-04-28T01:43:14.324Z,3.59
2023-04-28T01:45:40.932Z,3.52
2023-04-28T01:48:07.463Z,3.38
2023-04-28T01:50:33.975Z,3.37
2023-04-28T01:53:00.496Z,3.56
2023-04-28T01:55:27.050Z,3.43
2023-04-28T01:57:53.759Z,3.80
2023-04-28T02:00:20.308Z,3.61
2023-04-28T02:02:46.856Z,3.53
2023-04-28T02:05:13.513Z,3.48
2023-04-28T02:07:40.072Z,3.42
2023-04-28T02:10:06.624Z,3.38
2023-04-28T02:12:33.170Z,3.58
2023-04-28T02:14:59.632Z,3.49
2023-04-28T02:17:26.230Z,3.43
2023-04-28T02:19:52.783Z,3.46
2023-04-28T02:22:19.289Z,3.46
2023-04-28T02:24:45.760Z,3.49
2023-04-28T02:27:12.286Z,3.38
2023-04-28T02:29:38.825Z,3.32
2023-04-28T02:32:05.404Z,3.52
2023-04-28T02:34:31.955Z,3.32
2023-04-28T02:36:58.493Z,3.35
2023-04-28T02:39:24.956Z,3.28
2023-04-28T02:41:51.436Z,3.36
2023-04-28T02:44:18.207Z,3.42
2023-04-28T02:46:44.954Z,3.19
2023-04-28T02:49:13.519Z,3.34
2023-04-28T02:51:40.070Z,3.45
2023-04-28T02:54:06.647Z,3.38
2023-04-28T02:56:34.299Z,3.56
2023-04-28T02:59:00.859Z,3.31
2023-04-28T03:01:27.377Z,3.37
2023-04-28T03:03:53.966Z,3.30
2023-04-28T03:06:23.541Z,3.46
2023-04-28T03:08:49.937Z,3.28
2023-04-28T03:11:16.553Z,3.42
2023-04-28T03:13:43.087Z,3.16
2023-04-28T03:16:09.602Z,3.39
2023-04-28T03:18:36.152Z,3.19
2023-04-28T03:21:02.671Z,3.34
2023-04-28T03:23:29.193Z,3.43
2023-04-28T03:25:55.686Z,3.29
2023-04-28T03:28:22.328Z,3.08
2023-04-28T03:30:48.862Z,3.19
2023-04-28T03:33:15.326Z,3.28
2023-04-28T03:35:41.794Z,3.08
2023-04-28T03:38:08.313Z,3.33
2023-04-28T03:40:34.970Z,3.22
2023-04-28T03:43:03.994Z,3.11
2023-04-28T03:45:31.332Z,3.26
2023-04-28T03:47:57.993Z,3.20
2023-04-28T03:50:26.563Z,3.32
2023-04-28T03:52:53.360Z,3.54
2023-04-28T03:55:19.877Z,3.26
2023-04-28T03:57:46.406Z,3.16
2023-04-28T04:00:12.974Z,3.24
2023-04-28T04:02:39.702Z,3.17
2023-04-28T04:05:06.445Z,3.15
2023-04-28T04:07:32.929Z,3.18
2023-04-28T04:10:00.158Z,3.47
2023-04-28T04:12:27.969Z,3.08
2023-04-28T04:14:54.531Z,2.94
2023-04-28T04:17:21.034Z,3.26
2023-04-28T04:19:47.565Z,3.09
2023-04-28T04:22:14.148Z,3.31
2023-04-28T04:27:09.390Z,3.03
2023-04-28T04:29:35.872Z,3.15
2023-04-28T04:32:02.420Z,3.17
2023-04-28T04:34:28.867Z,3.01
2023-04-28T04:36:55.394Z,3.14
2023-04-28T04:39:22.023Z,3.22
2023-04-28T04:41:48.584Z,3.30
2023-04-28T04:44:15.274Z,3.21
2023-04-28T04:46:42.073Z,3.08
2023-04-28T04:49:08.668Z,2.89
2023-04-28T04:51:35.158Z,3.02
2023-04-28T04:54:01.896Z,2.96
2023-04-28T04:56:28.338Z,3.10
2023-04-28T04:58:54.914Z,2.95
2023-04-28T05:01:21.423Z,3.24
2023-04-28T05:03:49.159Z,3.15
2023-04-28T05:06:15.777Z,2.70
2023-04-28T05:08:42.229Z,3.03
2023-04-28T05:11:08.671Z,3.05
2023-04-28T05:13:35.074Z,3.04
2023-04-28T05:16:01.658Z,2.79
2023-04-28T05:18:28.154Z,2.92
2023-04-28T05:20:54.668Z,2.87
2023-04-28T05:23:21.169Z,2.90
2023-04-28T05:25:47.600Z,3.05
2023-04-28T05:28:14.085Z,2.96
2023-04-28T05:30:40.669Z,3.06
2023-04-28T05:33:07.164Z,3.07
2023-04-28T05:35:33.664Z,3.09
2023-04-28T05:38:00.099Z,3.01
2023-04-28T05:40:26.613Z,3.07
2023-04-28T05:42:53.174Z,2.98
2023-04-28T05:45:19.696Z,2.86
2023-04-28T05:47:46.431Z,2.58
2023-04-28T05:50:12.901Z,2.91
2023-04-28T05:52:39.452Z,2.78
2023-04-28T05:55:05.966Z,2.86
2023-04-28T05:57:38.953Z,2.82
2023-04-28T06:00:16.085Z,3.05
2023-04-28T06:02:42.698Z,2.98
2023-04-28T06:05:09.462Z,3.01
2023-04-28T06:07:36.002Z,2.99
2023-04-28T06:10:02.522Z,2.86
2023-04-28T06:12:29.070Z,2.75
2023-04-28T06:14:55.533Z,2.83
2023-04-28T06:17:21.999Z,2.87
2023-04-28T06:19:48.712Z,2.77
2023-04-28T06:22:15.272Z,2.93
2023-04-28T06:24:41.722Z,3.00
2023-04-28T06:27:08.153Z,2.79
2023-04-28T06:29:34.675Z,2.87
2023-04-28T06:32:01.145Z,3.01
2023-04-28T06:34:27.555Z,2.59
2023-04-28T06:36:56.816Z,2.85
2023-04-28T06:39:23.269Z,2.92
2023-04-28T06:41:49.695Z,2.75
2023-04-28T06:44:16.356Z,2.77
2023-04-28T06:46:43.051Z,2.72
2023-04-28T06:49:09.567Z,2.75
2023-04-28T06:51:35.972Z,2.83
2023-04-28T06:54:02.508Z,2.69
2023-04-28T06:56:29.029Z,2.76
2023-04-28T06:58:55.593Z,2.82
2023-04-28T07:01:22.224Z,2.89
2023-04-28T07:03:49.219Z,2.85
2023-04-28T07:06:15.824Z,2.78
2023-04-28T07:08:45.364Z,2.80
2023-04-28T07:11:11.877Z,2.77
2023-04-28T07:13:40.433Z,2.93
2023-04-28T07:16:06.892Z,3.14
2023-04-28T07:18:33.413Z,3.38
2023-04-28T07:20:59.936Z,3.13
2023-04-28T07:23:26.375Z,3.54
2023-04-28T07:25:52.886Z,3.18
2023-04-28T07:28:19.346Z,3.23
2023-04-28T07:30:45.839Z,3.07
2023-04-28T07:33:12.371Z,3.30
2023-04-28T07:35:38.940Z,3.32
2023-04-28T07:38:05.475Z,3.35
2023-04-28T07:40:31.988Z,3.20
2023-04-28T07:42:58.437Z,3.19
2023-04-28T07:45:24.859Z,3.32
2023-04-28T07:47:52.579Z,3.34
2023-04-28T07:50:19.132Z,3.00
2023-04-28T07:52:45.716Z,3.02
2023-04-28T07:55:12.256Z,3.18
2023-04-28T07:57:38.795Z,3.23
2023-04-28T08:00:05.316Z,3.15
2023-04-28T08:02:32.106Z,3.05
2023-04-28T08:04:58.949Z,2.56
2023-04-28T08:07:25.833Z,2.64
2023-04-28T08:09:53.722Z,2.67
2023-04-28T08:12:20.456Z,2.94
2023-04-28T08:14:46.888Z,3.47
2023-04-28T08:17:13.362Z,3.71
2023-04-28T08:19:39.800Z,4.36
2023-04-28T08:22:06.342Z,4.67
2023-04-28T08:24:32.869Z,4.39
2023-04-28T08:26:59.342Z,4.22
2023-04-28T08:29:25.750Z,4.47
2023-04-28T08:31:52.241Z,4.97
2023-04-28T08:34:19.019Z,4.71
2023-04-28T08:36:45.815Z,4.49
2023-04-28T08:39:13.649Z,4.53
2023-04-28T08:41:40.313Z,4.41
2023-04-28T08:44:06.771Z,4.73
2023-04-28T08:46:33.230Z,4.57
2023-04-28T08:48:59.746Z,4.19
2023-04-28T08:51:26.260Z,4.39
2023-04-28T08:56:22.061Z,4.21
2023-04-28T08:58:48.518Z,4.44
2023-04-28T09:01:14.987Z,3.90
2023-04-28T09:03:41.666Z,4.41
2023-04-28T09:06:08.238Z,4.26
2023-04-28T09:08:34.751Z,4.23
2023-04-28T09:11:01.273Z,4.16
2023-04-28T09:13:27.791Z,4.02
2023-04-28T09:15:54.338Z,4.31
2023-04-28T09:18:20.801Z,4.10
2023-04-28T09:20:47.278Z,4.11
2023-04-28T09:23:13.756Z,3.90
2023-04-28T09:25:40.217Z,3.93
2023-04-28T09:28:06.667Z,4.25
2023-04-28T09:30:33.189Z,3.97
2023-04-28T09:32:59.732Z,3.92
2023-04-28T09:35:26.251Z,4.15
2023-04-28T09:37:52.724Z,4.09
2023-04-28T09:40:19.222Z,3.91
2023-04-28T09:42:46.180Z,3.86
2023-04-28T09:45:12.770Z,3.67
2023-04-28T09:47:39.373Z,3.79
2023-04-28T09:50:05.857Z,3.80
2023-04-28T09:52:32.352Z,3.58
2023-04-28T09:54:58.858Z,3.81
2023-04-28T09:57:25.372Z,3.99
2023-04-28T09:59:51.909Z,3.85
2023-04-28T10:02:41.951Z,3.69
2023-04-28T10:05:05.105Z,3.61
2023-04-28T10:07:31.751Z,3.97
2023-04-28T10:09:58.243Z,3.66
2023-04-28T10:12:24.677Z,3.94
2023-04-28T10:14:51.203Z,3.79
2023-04-28T10:17:17.635Z,3.79
2023-04-28T10:19:44.150Z,3.57
2023-04-28T10:22:10.647Z,3.73
2023-04-28T10:24:37.155Z,3.68
2023-04-28T10:27:03.701Z,3.27
2023-04-28T10:29:30.255Z,3.50
2023-04-28T10:31:56.786Z,3.45
2023-04-28T10:34:23.328Z,3.36
2023-04-28T10:36:49.926Z,3.33
2023-04-28T10:39:16.485Z,3.35
2023-04-28T10:41:42.909Z,3.21
2023-04-28T10:44:09.806Z,3.02
2023-04-28T10:46:36.336Z,3.21
2023-04-28T10:49:02.811Z,3.03
2023-04-28T10:51:29.361Z,2.99
2023-04-28T10:53:55.879Z,2.80
2023-04-28T10:56:22.411Z,3.07
2023-04-28T10:58:48.937Z,2.82
2023-04-28T11:01:15.809Z,2.99
2023-04-28T11:03:42.584Z,2.73
2023-04-28T11:06:09.151Z,2.99
2023-04-28T11:08:35.819Z,3.14
2023-04-28T11:11:02.323Z,3.16
2023-04-28T11:13:29.308Z,2.87
2023-04-28T11:15:56.506Z,3.05
2023-04-28T11:18:23.377Z,3.00
2023-04-28T11:20:50.186Z,2.92
2023-04-28T11:23:16.712Z,3.13
2023-04-28T11:25:43.359Z,3.26
2023-04-28T11:28:09.901Z,3.22
2023-04-28T11:30:36.397Z,2.94
2023-04-28T11:33:03.043Z,3.23
2023-04-28T11:35:29.649Z,2.92
2023-04-28T11:37:56.501Z,3.15
2023-04-28T11:40:23.079Z,2.88
2023-04-28T11:42:49.622Z,3.16
2023-04-28T11:45:16.173Z,3.17
2023-04-28T11:47:42.851Z,3.11
2023-04-28T11:50:09.532Z,2.92
2023-04-28T11:52:36.067Z,2.87
2023-04-28T11:55:02.699Z,3.05
2023-04-28T11:57:29.464Z,2.92
2023-04-28T11:59:55.965Z,3.06
2023-04-28T12:02:22.538Z,2.95
2023-04-28T12:04:49.036Z,2.89
2023-04-28T12:07:15.492Z,2.89
2023-04-28T12:09:42.380Z,3.07
2023-04-28T12:12:09.158Z,2.95
2023-04-28T12:14:36.015Z,3.02
2023-04-28T12:17:02.638Z,2.98
2023-04-28T12:19:29.184Z,3.02
2023-04-28T12:21:55.687Z,2.87
2023-04-28T12:24:22.195Z,2.92
2023-04-28T12:26:48.685Z,2.84
2023-04-28T12:29:15.200Z,2.89
2023-04-28T12:31:41.718Z,3.14
2023-04-28T12:34:08.167Z,2.91
2023-04-28T12:36:34.635Z,3.17
2023-04-28T12:39:01.160Z,2.97
2023-04-28T12:41:27.640Z,2.96
2023-04-28T12:43:54.073Z,3.15
2023-04-28T12:46:20.685Z,2.97
2023-04-28T12:48:47.212Z,2.75
2023-04-28T12:51:13.644Z,2.95
2023-04-28T12:53:40.168Z,2.79
2023-04-28T12:56:06.657Z,2.84
2023-04-28T12:58:33.109Z,2.93
2023-04-28T13:00:59.590Z,2.98
2023-04-28T13:03:26.174Z,2.90
2023-04-28T13:05:52.676Z,3.06
2023-04-28T13:08:19.200Z,3.36
2023-04-28T13:10:45.678Z,3.64
2023-04-28T13:13:12.172Z,3.60
2023-04-28T13:15:39.016Z,3.64
2023-04-28T13:18:05.637Z,3.75
2023-04-28T13:20:32.123Z,3.51
2023-04-28T13:22:58.570Z,3.41
2023-04-28T13:25:25.014Z,3.44
2023-04-28T13:27:51.552Z,3.27
2023-04-28T13:30:18.109Z,3.45
2023-04-28T13:32:44.632Z,3.31
2023-04-28T13:35:11.176Z,3.33
2023-04-28T13:37:37.681Z,3.28
2023-04-28T13:40:04.452Z,3.29
2023-04-28T13:42:31.059Z,3.36
2023-04-28T13:44:57.622Z,3.43
2023-04-28T13:47:24.212Z,3.64
2023-04-28T13:49:50.693Z,3.44
2023-04-28T13:52:17.265Z,3.52
2023-04-28T13:54:43.995Z,3.46
2023-04-28T13:57:10.663Z,3.26
2023-04-28T13:59:37.117Z,3.37
2023-04-28T14:02:03.611Z,3.59
2023-04-28T14:04:30.318Z,3.19
2023-04-28T14:06:57.017Z,3.26
2023-04-28T14:09:23.676Z,3.35
2023-04-28T14:11:50.255Z,3.50
2023-04-28T14:14:16.797Z,3.12
2023-04-28T14:16:43.278Z,3.12
2023-04-28T14:19:09.825Z,3.25
2023-04-28T14:21:36.330Z,3.58
2023-04-28T14:24:02.761Z,3.44
2023-04-28T14:26:29.700Z,3.26
2023-04-28T14:28:56.266Z,3.18
2023-04-28T14:31:22.845Z,3.34
2023-04-28T14:33:49.387Z,3.52
2023-04-28T14:36:15.850Z,3.15
2023-04-28T14:38:42.270Z,3.32
2023-04-28T14:41:08.910Z,3.19
2023-04-28T14:43:35.454Z,3.24
2023-04-28T14:46:01.993Z,3.14
2023-04-28T14:48:28.504Z,3.23
2023-04-28T14:50:54.976Z,3.33
2023-04-28T14:53:21.564Z,3.13
2023-04-28T14:55:48.036Z,3.24
2023-04-28T14:58:14.544Z,3.21
2023-04-28T15:00:41.035Z,3.06
2023-04-28T15:03:07.664Z,3.23
2023-04-28T15:05:34.229Z,3.02
2023-04-28T15:08:00.749Z,3.29
2023-04-28T15:10:27.284Z,3.14
2023-04-28T15:12:53.738Z,3.19
2023-04-28T15:15:20.238Z,3.06
2023-04-28T15:17:46.774Z,3.07
2023-04-28T15:20:13.287Z,2.97
2023-04-28T15:22:39.839Z,3.09
2023-04-28T15:25:06.346Z,2.96
2023-04-28T15:27:32.769Z,3.25
2023-04-28T15:29:59.266Z,3.07
2023-04-28T15:32:26.252Z,2.89
2023-04-28T15:34:53.829Z,3.10
2023-04-28T15:37:20.257Z,3.19
2023-04-28T15:39:46.774Z,3.02
2023-04-28T15:42:13.234Z,3.23
2023-04-28T15:44:39.693Z,2.82
2023-04-28T15:47:06.124Z,2.73
2023-04-28T15:49:32.608Z,3.00
2023-04-28T15:51:59.282Z,3.31
2023-04-28T15:54:25.729Z,3.20
2023-04-28T15:56:52.164Z,3.04
2023-04-28T15:59:18.616Z,3.08
2023-04-28T16:01:45.167Z,3.43
2023-04-28T16:04:11.922Z,3.20
2023-04-28T16:06:38.582Z,2.93
2023-04-28T16:09:05.054Z,3.05
2023-04-28T16:11:31.521Z,2.91
2023-04-28T16:13:58.025Z,3.16
2023-04-28T16:16:24.450Z,3.35
2023-04-28T16:18:51.010Z,3.10
2023-04-28T16:21:17.542Z,3.40
2023-04-28T16:23:44.003Z,3.30
2023-04-28T16:26:10.466Z,3.47
2023-04-28T16:28:36.978Z,3.33
2023-04-28T16:31:03.538Z,3.35
2023-04-28T16:33:30.054Z,3.37
2023-04-28T16:35:56.563Z,3.34
2023-04-28T16:38:23.052Z,3.38
2023-04-28T16:40:49.568Z,3.34
2023-04-28T16:43:16.020Z,3.29
2023-04-28T16:45:42.490Z,3.37
2023-04-28T16:48:08.988Z,3.16
2023-04-28T16:50:35.437Z,3.13
2023-04-28T16:53:01.955Z,3.06
2023-04-28T16:55:28.449Z,3.16
2023-04-28T16:57:54.925Z,3.03
2023-04-28T17:00:21.333Z,3.22
2023-04-28T17:02:47.897Z,2.89
2023-04-28T17:05:14.417Z,3.04
2023-04-28T17:07:40.936Z,3.04
2023-04-28T17:10:07.522Z,2.95
2023-04-28T17:12:34.113Z,2.96
2023-04-28T17:15:00.582Z,2.75
2023-04-28T17:17:27.130Z,2.90
2023-04-28T17:19:53.732Z,2.85
2023-04-28T17:22:20.223Z,2.88
2023-04-28T17:24:49.720Z,2.79
2023-04-28T17:27:16.221Z,2.70
2023-04-28T17:29:42.728Z,2.88
2023-04-28T17:32:09.199Z,2.97
2023-04-28T17:34:35.670Z,2.82
2023-04-28T17:37:02.110Z,2.98
2023-04-28T17:39:28.630Z,2.94
2023-04-28T17:41:55.104Z,2.71
2023-04-28T17:44:21.618Z,2.80
2023-04-28T17:46:48.116Z,3.09
2023-04-28T17:49:14.586Z,2.90
2023-04-28T17:51:41.070Z,2.68
2023-04-28T17:54:07.531Z,2.89
2023-04-28T17:56:34.111Z,2.63
2023-04-28T17:59:00.650Z,2.84
2023-04-28T18:01:27.178Z,3.03
2023-04-28T18:03:53.670Z,2.86
2023-04-28T18:06:20.179Z,2.82
2023-04-28T18:08:46.697Z,2.64
2023-04-28T18:11:13.249Z,2.88
2023-04-28T18:13:39.810Z,2.90
2023-04-28T18:16:06.279Z,2.98
2023-04-28T18:18:35.374Z,2.91
2023-04-28T18:21:02.126Z,3.02
2023-04-28T18:23:28.588Z,2.74
2023-04-28T18:25:55.103Z,2.92
2023-04-28T18:28:21.661Z,2.78
2023-04-28T18:30:48.110Z,2.83
2023-04-28T18:33:14.585Z,3.00
2023-04-28T18:35:41.079Z,2.89
2023-04-28T18:38:07.610Z,2.84
2023-04-28T18:40:34.167Z,2.82
2023-04-28T18:43:00.723Z,3.09
2023-04-28T18:45:27.200Z,2.80
2023-04-28T18:47:53.728Z,2.92
2023-04-28T18:50:20.406Z,2.78
2023-04-28T18:52:46.861Z,2.79
2023-04-28T18:55:13.310Z,2.65
2023-04-28T18:57:39.807Z,2.92
2023-04-28T19:00:06.261Z,2.91
2023-04-28T19:02:32.781Z,2.83
2023-04-28T19:04:59.327Z,3.01
2023-04-28T19:07:25.913Z,2.86
2023-04-28T19:09:52.420Z,2.96
2023-04-28T19:12:18.850Z,2.92
2023-04-28T19:14:45.285Z,3.12
2023-04-28T19:17:11.861Z,2.98
2023-04-28T19:19:38.420Z,2.71
2023-04-28T19:22:04.939Z,2.98
2023-04-28T19:24:31.480Z,2.83
2023-04-28T19:26:57.982Z,2.87
2023-04-28T19:29:24.486Z,2.93
2023-04-28T19:31:50.915Z,3.39
2023-04-28T19:34:17.419Z,3.97
2023-04-28T19:36:43.885Z,4.32
2023-04-28T19:39:10.437Z,4.22
2023-04-28T19:41:39.799Z,4.37
2023-04-28T19:44:06.304Z,4.34
2023-04-28T19:46:32.749Z,4.54
2023-04-28T19:48:59.246Z,4.45
2023-04-28T19:51:25.684Z,4.57
2023-04-28T19:53:52.147Z,4.76
2023-04-28T19:56:18.658Z,4.64
2023-04-28T19:58:45.111Z,4.37
2023-04-28T20:01:11.649Z,4.35
2023-04-28T20:03:38.319Z,4.52
2023-04-28T20:06:04.815Z,4.59
2023-04-28T20:08:31.326Z,4.42
2023-04-28T20:10:57.854Z,3.50
2023-04-28T20:13:24.718Z,3.65
2023-04-28T20:15:52.121Z,3.81
2023-04-28T20:18:18.584Z,3.95
2023-04-28T20:20:45.096Z,4.53
2023-04-28T20:23:11.516Z,4.34
2023-04-28T20:25:37.966Z,4.13
2023-04-28T20:28:04.482Z,4.10
2023-04-28T20:30:30.983Z,4.17
2023-04-28T20:32:57.560Z,3.94
2023-04-28T20:35:24.064Z,3.81
2023-04-28T20:37:50.558Z,3.78
2023-04-28T20:40:17.065Z,3.89
2023-04-28T20:42:43.574Z,3.74
2023-04-28T20:45:10.097Z,3.71
2023-04-28T20:47:36.696Z,3.74
2023-04-28T20:50:03.331Z,4.02
2023-04-28T20:52:29.777Z,3.62
2023-04-28T20:54:56.220Z,3.66
2023-04-28T20:57:22.651Z,3.77
2023-04-28T20:59:49.326Z,3.44
2023-04-28T21:02:16.019Z,3.71
2023-04-28T21:04:42.669Z,3.60
2023-04-28T21:07:09.307Z,3.66
2023-04-28T21:09:35.834Z,3.57
2023-04-28T21:12:02.282Z,3.60
2023-04-28T21:14:28.709Z,3.43
2023-04-28T21:16:55.234Z,3.54
2023-04-28T21:19:21.760Z,3.40
2023-04-28T21:21:48.274Z,3.64
2023-04-28T21:24:14.722Z,3.47
2023-04-28T21:26:41.213Z,3.37
2023-04-28T21:29:07.782Z,3.68
2023-04-28T21:31:34.223Z,3.19
2023-04-28T21:34:00.733Z,3.57
2023-04-28T21:36:27.220Z,3.22
2023-04-28T21:38:53.622Z,3.25
2023-04-28T21:41:20.098Z,3.23
2023-04-28T21:43:46.611Z,3.37
2023-04-28T21:46:13.324Z,3.09
2023-04-28T21:48:39.885Z,3.26
2023-04-28T21:51:06.379Z,3.10
2023-04-28T21:53:32.912Z,3.33
2023-04-28T21:55:59.375Z,3.43
2023-04-28T21:58:25.948Z,3.22
2023-04-28T22:00:52.492Z,3.14
2023-04-28T22:03:19.199Z,3.25
2023-04-28T22:05:45.830Z,3.11
2023-04-28T22:08:12.310Z,3.38
2023-04-28T22:10:38.869Z,3.51
2023-04-28T22:13:05.321Z,3.40
2023-04-28T22:15:31.922Z,3.24
2023-04-28T22:17:58.552Z,3.26
2023-04-28T22:20:25.188Z,2.98
2023-04-28T22:22:51.667Z,3.33
2023-04-28T22:25:18.163Z,3.38
2023-04-28T22:27:44.886Z,3.21
2023-04-28T22:30:11.352Z,3.09
2023-04-28T22:32:37.869Z,3.34
2023-04-28T22:35:04.412Z,3.20
2023-04-28T22:37:31.029Z,3.16
2023-04-28T22:39:57.556Z,3.23
2023-04-28T22:42:24.141Z,3.21
2023-04-28T22:44:50.681Z,3.31
2023-04-28T22:47:17.208Z,3.29
2023-04-28T22:49:43.744Z,3.25
2023-04-28T22:52:10.407Z,3.14
2023-04-28T22:54:36.915Z,3.31
2023-04-28T22:57:03.390Z,3.04
2023-04-28T22:59:29.989Z,3.32
2023-04-28T23:01:56.506Z,3.19
2023-04-28T23:04:23.176Z,3.03
2023-04-28T23:06:49.823Z,2.94
2023-04-28T23:09:16.377Z,3.03
2023-04-28T23:11:42.931Z,3.02
2023-04-28T23:14:09.475Z,3.16
2023-04-28T23:16:36.109Z,3.10
2023-04-28T23:19:02.803Z,3.17
2023-04-28T23:21:29.342Z,3.12
2023-04-28T23:23:55.952Z,2.98
2023-04-28T23:26:22.507Z,2.95
2023-04-28T23:28:49.044Z,3.04
2023-04-28T23:31:16.033Z,2.71
2023-04-28T23:33:42.648Z,3.07
2023-04-28T23:36:09.243Z,2.91
2023-04-28T23:38:35.743Z,2.98
2023-04-28T23:41:02.307Z,2.82
2023-04-28T23:43:28.864Z,2.85
2023-04-28T23:45:55.386Z,2.88
2023-04-28T23:48:21.935Z,2.85
2023-04-28T23:50:48.399Z,2.92
2023-04-28T23:53:14.950Z,2.99
2023-04-28T23:55:41.552Z,2.71
2023-04-28T23:58:08.019Z,2.80
